This is the latest recevied weather packets stored in our database for station/object vk4zu-13. If no packets are shown the sender has not sent any weather packets the latest 10 day(s).
| Time | Temp. | Humidity | Pressure | Rain* | Wind** | Luminosity | Snow |
|---|---|---|---|---|---|---|---|
| 1777606670 | 26.11° C | 62% | 1022.6 hPa | 0 mm | - | 642 W/m² | - |
| 1777606595 | 26.11° C | 59% | 1022.6 hPa | 0 mm | - | 643 W/m² | - |
| 1777606528 | 26.67° C | 59% | 1022.7 hPa | 0 mm | - | 647 W/m² | - |
| 1777606454 | 26.67° C | 58% | 1022.8 hPa | 0 mm | - | 633 W/m² | - |
| 1777606385 | 26.67° C | 61% | 1022.7 hPa | 0 mm | - | 645 W/m² | - |
| 1777606314 | 26.67° C | 63% | 1022.9 hPa | 0 mm | - | 647 W/m² | - |
| 1777606244 | 26.11° C | 60% | 1022.7 hPa | 0 mm | - | 663 W/m² | - |
| 1777606175 | 26.67° C | 60% | 1022.7 hPa | 0 mm | - | 654 W/m² | - |
| 1777606107 | 26.67° C | 60% | 1022.8 hPa | 0 mm | - | 650 W/m² | - |
| 1777606047 | 26.67° C | 59% | 1022.8 hPa | 0 mm | - | 645 W/m² | - |
| 1777605989 | 26.67° C | 63% | 1022.8 hPa | 0 mm | - | 649 W/m² | - |
| 1777605921 | 26.11° C | 61% | 1022.9 hPa | 0 mm | - | 654 W/m² | - |
| 1777605858 | 26.67° C | 59% | 1022.8 hPa | 0 mm | - | 670 W/m² | - |
| 1777605798 | 26.67° C | 61% | 1022.9 hPa | 0 mm | - | 649 W/m² | - |
| 1777605725 | 26.11° C | 63% | 1022.8 hPa | 0 mm | - | 659 W/m² | - |
| 1777605652 | 26.11° C | 62% | 1022.9 hPa | 0 mm | - | 659 W/m² | - |
| 1777605586 | 25.56° C | 61% | 1022.9 hPa | 0 mm | - | 661 W/m² | - |
| 1777605514 | 26.11° C | 62% | 1022.9 hPa | 0 mm | - | 677 W/m² | - |
| 1777605443 | 25.56° C | 65% | 1023 hPa | 0 mm | - | 557 W/m² | - |
| 1777605373 | 25.56° C | 63% | 1022.9 hPa | 0 mm | - | 712 W/m² | - |
| 1777605303 | 25.56° C | 64% | 1023 hPa | 0 mm | - | 698 W/m² | - |
| 1777605233 | 25.56° C | 65% | 1022.9 hPa | 0 mm | - | 701 W/m² | - |
| 1777605163 | 25° C | 64% | 1023 hPa | 0 mm | - | 694 W/m² | - |
| 1777605093 | 25° C | 66% | 1022.9 hPa | 0 mm | - | 738 W/m² | - |
| 1777605023 | 24.44° C | 64% | 1023.1 hPa | 0 mm | - | 239 W/m² | - |
* Rain latest hour (hover to see other rain measurements)
** Current wind speed in m/s (hover to see current wind gust speed)